首页
METAR-TAF:

METAR-TAF

机场 :

Pembrey, 威尔士

纬度: 51-43N, 经度: 004-22W, 海拔: 3米

当前天气观测

该预报发布于55分钟前的09:50 UTC
风速9节,风向西转西南
温度 16°C
湿度 94%
气压 1011 hPa

METAR: EGOP 090950Z AUTO 24009KT //// // OVC008/// 16/15 Q1011

时间: 11:45 (10:45 UTC)


TAF: 丢失

超过4000个机场的气象观测和天气预报(METAR&TAF报告)。

可查询的气象台以黄色和红色小点在地图上表示。

将鼠标移到小点上方,可查看气象台名称。

然后点击查看天气观测和预报。

如需切换地图:点击带黑十字的绿色按钮放大地图;点击带横线的绿色按钮缩小地图;或者点击绿色箭头查看邻近地区的地图。


METAR-TAF: